Haleeka, Pennsylvania
Current Conditions -  °F | °C
As of 11:54 AM on Friday 24 Oct 2014 (Local Time) from KIPT Reporting Station
Clear Clear  
Wind Chill: 64°   Ceiling: Unl
Heat Index: 64°   Visibility: 10mi
Dew Point: 39°   Wind: 9mph
Humidity: 40%   Direction: 300°WNW
Pressure: 29.92"   Gusts: 17mph
Location:  41.3181°N, 77.075°W
Report Text: KIPT 241554Z 30008G15KT 10SM CLR 18/04 A2992 RMK AO2 SLP130 T01780039
Loading
Personal Weather Stations






























Interactive Weather Map
Tropical Storm Tracking
New forecast layout! Learn more

10-Day Weather Forecast

Advertisements
Track Severe Weather on mobile